• Join FlightAware (Why Join?)
  • Login
  • US Flag 
08:33AM EST


 

Airport Tracker/Info


-or-


 

Live Flight TrackerFlight Track Log ✈ HAL297 ✈ 02-May-2012 ✈ PHKO / KOA - PHNL

Flight Track Log - Related Links

Times and Time Zones

All times are in EDT time to prevent confusion due to time zone crossing. See the HAL297 flight status page for this flight to view local times or setup timezone preferences in your user account.

Time Position Orientation Groundspeed Altitude Reporting Facility
EDT Latitude Longitude Course Direction KTS MPH feet Rate Location/Type
10:36PM 19.7535 -156.0638 166° South  Level FlightAware Approximate
10:37PM 19.7000 -156.0500 255° West 210 242 1,500  Level Honolulu Center
10:38PM 19.6833 -156.1167 317° Northwest 260 299 3,900 2,580 Climbing Honolulu Center
10:39PM 19.7333 -156.1667 309° West 280 322 6,800 2,880 Climbing Honolulu Center
10:40PM 19.7833 -156.2333 317° Northwest 300 345 9,800 2,340 Climbing Honolulu Center
10:41PM 19.8500 -156.3000 310° West 340 391 11,600 1,800 Climbing Honolulu Center
10:42PM 19.9167 -156.3833 312° West 380 437 13,500 1,800 Climbing Honolulu Center
10:43PM 20.0000 -156.4833 317° Northwest 410 472 15,200 1,980 Climbing Honolulu Center
10:44PM 20.0833 -156.5667 305° West 420 483 17,500 2,100 Climbing Honolulu Center
10:45PM 20.1500 -156.6667 317° Northwest 420 483 19,500 1,200 Climbing Honolulu Center
10:46PM 20.2333 -156.7500 317° Northwest 410 472 20,000 240 Climbing Honolulu Center
10:47PM 20.3167 -156.8333 312° West 400 460 20,000  Level Honolulu Center
10:48PM 20.4000 -156.9333 317° Northwest 410 472 20,000  Level Honolulu Center
10:49PM 20.4667 -157.0000 311° West 380 437 20,000 -120 Level Honolulu Center
10:50PM 20.5333 -157.0833 311° West 380 437 19,800 -1,020 Descending Honolulu Center
10:51PM 20.6000 -157.1667 317° Northwest 380 437 18,000 -1,920 Descending Honolulu Center
10:52PM 20.6833 -157.2500 311° West 370 426 16,000 -2,040 Descending Honolulu Center
10:53PM 20.7500 -157.3333 311° West 370 426 14,000 -1,680 Descending Honolulu Center
10:54PM 20.8167 -157.4167 303° West 340 391 12,600 -1,320 Descending Honolulu Center
10:55PM 20.8667 -157.5000 293° West 320 368 11,400 -1,200 Descending Honolulu Center
10:56PM 20.9000 -157.5833 309° West 300 345 10,200 -1,260 Descending Honolulu Center
10:57PM 20.9500 -157.6500 298° West 290 334 8,900 -1,320 Descending Honolulu Center
10:58PM 20.9833 -157.7167 303° West 300 345 7,600 -1,020 Descending Honolulu Center
10:59PM 21.0333 -157.8000 306° West 260 299 6,900 -1,020 Descending Honolulu Center
11:00PM 21.0667 -157.8500 298° West 240 276 5,600 -1,380 Descending Honolulu Center
11:01PM 21.1000 -157.9167 317° Northwest 230 265 4,200 -1,260 Descending Honolulu Center
11:02PM 21.1500 -157.9667 317° Northwest 240 276 3,100 -1,140 Descending Honolulu Center